Annapolis, California
Current Conditions -  °F | °C
As of 1:56 PM on Tuesday 21 Oct 2014 (Local Time) from KUKI Reporting Station
Clear Clear  
Wind Chill: 68°   Ceiling: Unl
Heat Index: 68°   Visibility: 10mi
Dew Point: 45°   Wind: 3mph
Humidity: 43%   Direction: NA
Pressure: 30.06"   Gusts: NA
Location:  38.71°N, 123.35°W
Report Text: KUKI 212056Z AUTO VRB03KT 10SM CLR 20/07 A3006 RMK AO2 SLP174 T02000072 58025
Loading
Personal Weather Stations






























Interactive Weather Map New forecast layout! Learn more

10-Day Weather Forecast

Advertisements
Track Severe Weather on mobile